Time;durP1;ratioP1;P1;durP2;ratioP2;P2;SDS_P1;SDS_P2;PMS_P1;PMS_P2;Temp;Humidity;BMP_temperature;BMP_pressure;BME280_temperature;BME280_humidity;BME280_pressure;Samples;Min_cycle;Max_cycle;Signal;HPM_P1;HPM_P2
2024/01/31 00:01:23;;;;;;;1.83;1.55;;;10.40;83.10;;;;;;4840240;29;20147;-80
2024/01/31 00:03:48;;;;;;;1.55;1.45;;;10.30;83.10;;;;;;4867778;29;20108;-79
2024/01/31 00:06:14;;;;;;;1.58;1.45;;;10.30;83.10;;;;;;4858186;29;20026;-91
2024/01/31 00:08:40;;;;;;;1.90;1.70;;;10.30;83.10;;;;;;4855373;29;20077;-77
2024/01/31 00:11:09;;;;;;;2.50;1.55;;;10.30;83.10;;;;;;4858186;29;20097;-81
2024/01/31 00:13:35;;;;;;;2.38;1.90;;;10.30;83.10;;;;;;4868402;29;20026;-91
2024/01/31 00:16:01;;;;;;;1.50;1.40;;;10.30;83.10;;;;;;4874227;29;20040;-78
2024/01/31 00:18:27;;;;;;;2.30;1.60;;;10.30;83.10;;;;;;4872449;29;20029;-86
2024/01/31 00:20:53;;;;;;;2.13;1.50;;;10.30;83.10;;;;;;4857437;29;20026;-90
2024/01/31 00:23:19;;;;;;;1.83;1.40;;;10.20;83.10;;;;;;4860942;29;20487;-86
2024/01/31 00:25:45;;;;;;;1.67;1.40;;;10.30;83.10;;;;;;4871428;29;20111;-90
2024/01/31 00:28:12;;;;;;;2.00;1.40;;;10.20;83.10;;;;;;4872789;29;20580;-86
2024/01/31 00:30:38;;;;;;;2.10;1.20;;;10.20;83.10;;;;;;4872741;29;20034;-90
2024/01/31 00:33:04;;;;;;;3.38;1.88;;;10.20;83.10;;;;;;4842530;29;20090;-77
2024/01/31 00:35:30;;;;;;;1.77;1.60;;;10.20;83.10;;;;;;4858589;29;20056;-90
2024/01/31 00:37:55;;;;;;;2.47;1.48;;;10.20;83.10;;;;;;4843591;29;20073;-77
2024/01/31 00:40:22;;;;;;;1.50;1.40;;;10.20;83.10;;;;;;4855442;29;20136;-86
2024/01/31 00:42:47;;;;;;;2.00;1.55;;;10.20;83.10;;;;;;4858120;29;20086;-80
2024/01/31 00:45:14;;;;;;;2.00;1.40;;;10.20;83.10;;;;;;4859541;29;20029;-91
2024/01/31 00:47:43;;;;;;;2.05;1.50;;;10.10;83.10;;;;;;4858290;29;20085;-80
2024/01/31 00:50:11;;;;;;;2.97;1.60;;;10.10;83.10;;;;;;4843153;29;20044;-88
2024/01/31 00:52:36;;;;;;;1.90;1.50;;;10.10;83.10;;;;;;4863864;29;20021;-90
2024/01/31 00:55:03;;;;;;;1.45;1.35;;;10.10;83.10;;;;;;4862862;29;20036;-90
2024/01/31 00:57:28;;;;;;;2.38;1.58;;;10.10;83.10;;;;;;4877502;29;20125;-90
2024/01/31 00:59:55;;;;;;;2.13;1.40;;;10.10;83.10;;;;;;4857945;29;20034;-86
2024/01/31 01:02:20;;;;;;;1.60;1.50;;;10.10;83.10;;;;;;4875813;29;20026;-86
2024/01/31 01:04:46;;;;;;;2.67;1.67;;;10.10;83.10;;;;;;4846734;29;20033;-86
2024/01/31 01:07:12;;;;;;;1.60;1.40;;;10.10;83.10;;;;;;4860561;29;20029;-86
2024/01/31 01:09:38;;;;;;;1.60;1.33;;;10.00;83.10;;;;;;4845642;29;20040;-86
2024/01/31 01:12:04;;;;;;;2.25;1.30;;;10.00;83.10;;;;;;4860877;29;20033;-77
2024/01/31 01:14:30;;;;;;;1.60;1.38;;;10.00;83.10;;;;;;4857367;29;20048;-86
2024/01/31 01:16:56;;;;;;;1.30;1.20;;;10.10;83.10;;;;;;4853819;29;20029;-91
2024/01/31 01:19:21;;;;;;;1.70;1.60;;;10.00;83.10;;;;;;4870936;29;20038;-80
2024/01/31 01:21:47;;;;;;;1.40;1.30;;;10.00;83.10;;;;;;4855586;29;20033;-91
2024/01/31 01:24:13;;;;;;;1.45;1.33;;;10.00;83.10;;;;;;4856980;29;20030;-80
2024/01/31 01:26:40;;;;;;;1.70;1.60;;;10.00;83.10;;;;;;4859101;29;20032;-91
2024/01/31 01:29:06;;;;;;;1.52;1.42;;;10.00;83.10;;;;;;4849654;29;20498;-77
2024/01/31 01:31:32;;;;;;;1.55;1.35;;;10.00;83.10;;;;;;4863537;29;20120;-91
2024/01/31 01:33:59;;;;;;;2.20;1.52;;;10.00;83.10;;;;;;4842693;29;20128;-79
2024/01/31 01:36:25;;;;;;;1.63;1.30;;;9.90;83.10;;;;;;4872420;29;20026;-85
2024/01/31 01:38:51;;;;;;;2.13;1.70;;;9.90;83.10;;;;;;4853444;29;20033;-80
2024/01/31 01:41:17;;;;;;;1.50;1.30;;;9.90;83.10;;;;;;4858303;29;20042;-91
2024/01/31 01:43:43;;;;;;;1.50;1.40;;;9.90;83.10;;;;;;4837744;29;20021;-77
2024/01/31 01:46:10;;;;;;;1.73;1.40;;;9.90;83.10;;;;;;4840510;29;20120;-80
2024/01/31 01:48:37;;;;;;;1.33;1.23;;;9.90;83.10;;;;;;4870194;29;20052;-90
2024/01/31 01:51:03;;;;;;;1.60;1.50;;;9.90;83.10;;;;;;4858541;29;20040;-91
2024/01/31 01:53:32;;;;;;;1.83;1.23;;;9.90;83.10;;;;;;4859600;29;20073;-78
2024/01/31 01:55:58;;;;;;;1.70;1.60;;;9.90;83.10;;;;;;4853096;29;20128;-79
2024/01/31 01:58:24;;;;;;;1.45;1.33;;;9.90;83.10;;;;;;4873668;29;20108;-91
2024/01/31 02:00:50;;;;;;;1.48;1.30;;;9.80;83.10;;;;;;4856162;29;20136;-86
2024/01/31 02:03:17;;;;;;;1.63;1.40;;;9.90;83.10;;;;;;4870187;29;20043;-86
2024/01/31 02:05:46;;;;;;;1.40;1.30;;;9.80;83.10;;;;;;4857143;29;20033;-86
2024/01/31 02:08:13;;;;;;;1.60;1.50;;;9.80;83.10;;;;;;4841076;29;20033;-77
2024/01/31 02:10:39;;;;;;;1.73;1.40;;;9.80;83.10;;;;;;4837008;29;20043;-91
2024/01/31 02:13:05;;;;;;;1.92;1.42;;;9.80;83.10;;;;;;4859898;29;20132;-79
2024/01/31 02:15:30;;;;;;;1.40;1.30;;;9.80;83.10;;;;;;4870127;29;20035;-80
2024/01/31 02:17:57;;;;;;;1.63;1.38;;;9.80;83.10;;;;;;4856385;29;20053;-80
2024/01/31 02:20:24;;;;;;;1.83;1.40;;;9.80;83.10;;;;;;4856122;29;20038;-85
2024/01/31 02:22:51;;;;;;;1.30;1.20;;;9.80;83.10;;;;;;4848500;29;20042;-79
2024/01/31 02:25:16;;;;;;;2.17;1.40;;;9.80;83.10;;;;;;4853728;29;20151;-80
2024/01/31 02:27:42;;;;;;;1.63;1.40;;;9.80;83.20;;;;;;4867220;29;20390;-80
2024/01/31 02:30:08;;;;;;;2.08;1.50;;;9.80;83.20;;;;;;4854898;29;20073;-86
2024/01/31 02:32:34;;;;;;;1.88;1.40;;;9.80;83.10;;;;;;4838633;29;20043;-77
2024/01/31 02:35:00;;;;;;;1.60;1.27;;;9.70;83.10;;;;;;4853062;29;20068;-78
2024/01/31 02:37:26;;;;;;;1.50;1.40;;;9.70;83.10;;;;;;4850455;29;20306;-77
2024/01/31 02:39:52;;;;;;;1.30;1.20;;;9.70;83.10;;;;;;4840881;29;20442;-79
2024/01/31 02:42:18;;;;;;;1.40;1.30;;;9.70;83.10;;;;;;4868043;29;20474;-87
2024/01/31 02:44:44;;;;;;;1.25;1.15;;;9.70;83.10;;;;;;4856270;29;20029;-77
2024/01/31 02:47:10;;;;;;;1.67;1.40;;;9.70;83.10;;;;;;4871765;29;20033;-80
2024/01/31 02:49:35;;;;;;;1.85;1.50;;;9.70;83.10;;;;;;4856248;29;20033;-87
2024/01/31 02:52:01;;;;;;;1.48;1.35;;;9.70;83.10;;;;;;4870820;29;20060;-79
2024/01/31 02:54:27;;;;;;;1.50;1.40;;;9.70;83.10;;;;;;4873943;29;20033;-77
2024/01/31 02:56:52;;;;;;;1.60;1.50;;;9.70;83.80;;;;;;4858051;29;20045;-78
2024/01/31 02:59:20;;;;;;;1.10;1.10;;;9.70;83.10;;;;;;4870893;29;20069;-80
2024/01/31 03:01:47;;;;;;;1.60;1.50;;;9.70;83.10;;;;;;4841713;29;20033;-86
2024/01/31 03:04:13;;;;;;;1.48;1.30;;;9.70;83.10;;;;;;4863749;29;20034;-77
2024/01/31 03:06:39;;;;;;;1.30;1.20;;;9.70;83.10;;;;;;4844644;29;20517;-77
2024/01/31 03:09:09;;;;;;;1.40;1.30;;;9.60;83.10;;;;;;4861083;29;20021;-86
2024/01/31 03:11:35;;;;;;;2.55;1.42;;;9.60;83.10;;;;;;4868702;29;20112;-77
2024/01/31 03:14:00;;;;;;;2.25;1.50;;;9.60;83.10;;;;;;4851737;29;20185;-91
2024/01/31 03:16:26;;;;;;;1.40;1.30;;;9.60;83.10;;;;;;4856651;29;20124;-79
2024/01/31 03:18:53;;;;;;;2.00;1.55;;;9.60;83.10;;;;;;4855570;29;20040;-87
2024/01/31 03:21:19;;;;;;;1.35;1.25;;;9.60;83.10;;;;;;4839800;29;20071;-90
2024/01/31 03:23:45;;;;;;;1.75;1.38;;;9.60;83.10;;;;;;4857774;29;20077;-90
2024/01/31 03:26:14;;;;;;;1.50;1.40;;;9.60;83.10;;;;;;4854465;29;20105;-78
2024/01/31 03:28:40;;;;;;;1.92;1.30;;;9.60;83.10;;;;;;4855819;29;20032;-87
2024/01/31 03:31:06;;;;;;;1.70;1.60;;;9.60;83.10;;;;;;4857198;29;20029;-87
2024/01/31 03:33:31;;;;;;;1.70;1.60;;;9.50;83.10;;;;;;4872586;29;20030;-91
2024/01/31 03:35:57;;;;;;;1.42;1.30;;;9.50;83.10;;;;;;4865923;29;20030;-77
2024/01/31 03:38:23;;;;;;;1.48;1.38;;;9.60;83.10;;;;;;4868277;29;20057;-81
2024/01/31 03:40:49;;;;;;;1.60;1.50;;;9.50;83.10;;;;;;4838211;29;20022;-77
2024/01/31 03:43:14;;;;;;;1.63;1.52;;;9.50;83.10;;;;;;4853587;29;20029;-77
2024/01/31 03:45:40;;;;;;;1.38;1.27;;;9.50;83.10;;;;;;4869410;29;20122;-92
2024/01/31 03:48:06;;;;;;;1.52;1.38;;;9.50;83.10;;;;;;4851128;29;20569;-92
2024/01/31 03:50:32;;;;;;;1.58;1.48;;;9.50;83.70;;;;;;4855402;29;20097;-80
2024/01/31 03:52:58;;;;;;;1.50;1.40;;;9.50;83.10;;;;;;4853353;29;20478;-86
2024/01/31 03:55:24;;;;;;;2.22;1.50;;;9.50;83.10;;;;;;4870300;29;20089;-92
2024/01/31 03:57:49;;;;;;;1.55;1.30;;;9.50;83.10;;;;;;4869999;29;20167;-86
2024/01/31 04:00:16;;;;;;;1.10;1.10;;;9.50;83.20;;;;;;4838943;29;20068;-91
2024/01/31 04:02:41;;;;;;;2.15;1.50;;;9.50;83.10;;;;;;4835875;29;20037;-86
2024/01/31 04:05:10;;;;;;;1.60;1.50;;;9.50;83.20;;;;;;4857358;29;20030;-79
2024/01/31 04:07:36;;;;;;;1.83;1.20;;;9.50;83.10;;;;;;4856846;29;20041;-77
2024/01/31 04:10:05;;;;;;;1.60;1.50;;;9.50;83.10;;;;;;4853411;29;20036;-77
2024/01/31 04:12:31;;;;;;;1.38;1.27;;;9.40;83.10;;;;;;4852922;29;20458;-86
2024/01/31 04:14:57;;;;;;;1.10;1.10;;;9.40;83.10;;;;;;4859554;29;20093;-93
2024/01/31 04:17:22;;;;;;;1.40;1.30;;;9.40;83.10;;;;;;4855436;29;20032;-86
2024/01/31 04:19:48;;;;;;;2.10;1.80;;;9.40;83.10;;;;;;4840222;29;20049;-80
2024/01/31 04:22:16;;;;;;;1.40;1.30;;;9.40;83.10;;;;;;4835425;29;20493;-80
2024/01/31 04:24:43;;;;;;;1.65;1.50;;;9.40;83.10;;;;;;4869061;29;20051;-92
2024/01/31 04:27:10;;;;;;;1.65;1.30;;;9.40;83.10;;;;;;4838309;29;20034;-93
2024/01/31 04:29:39;;;;;;;1.40;1.30;;;9.40;83.10;;;;;;4854225;29;20030;-86
2024/01/31 04:32:06;;;;;;;1.55;1.30;;;9.40;83.20;;;;;;4852585;29;20029;-77
2024/01/31 04:34:31;;;;;;;1.67;1.50;;;9.40;83.20;;;;;;4854920;29;20092;-84
2024/01/31 04:36:57;;;;;;;1.52;1.40;;;9.40;83.20;;;;;;4855753;29;20036;-80
2024/01/31 04:39:23;;;;;;;1.50;1.40;;;9.40;83.20;;;;;;4855712;29;20022;-77
2024/01/31 04:41:49;;;;;;;1.70;1.38;;;9.40;83.20;;;;;;4836949;29;20179;-93
2024/01/31 04:44:14;;;;;;;1.40;1.30;;;9.40;83.20;;;;;;4853340;29;20068;-76
2024/01/31 04:46:40;;;;;;;1.70;1.45;;;9.40;83.20;;;;;;4849978;29;20081;-87
2024/01/31 04:49:06;;;;;;;1.38;1.27;;;9.40;83.20;;;;;;4855448;29;20052;-77
2024/01/31 04:51:32;;;;;;;1.60;1.50;;;9.40;83.20;;;;;;4868124;29;20069;-86
2024/01/31 04:53:57;;;;;;;1.40;1.30;;;9.40;83.20;;;;;;4852481;29;20033;-86
2024/01/31 04:56:24;;;;;;;2.55;1.30;;;9.30;83.20;;;;;;4841575;29;20045;-86
2024/01/31 04:58:50;;;;;;;1.42;1.33;;;9.30;83.20;;;;;;4856510;29;20084;-86
2024/01/31 05:01:16;;;;;;;2.17;1.50;;;9.30;83.20;;;;;;4870823;29;20595;-76
2024/01/31 05:03:42;;;;;;;1.63;1.33;;;9.30;83.20;;;;;;4871273;29;20406;-80
2024/01/31 05:06:08;;;;;;;1.63;1.52;;;9.30;83.20;;;;;;4861125;29;20017;-85
2024/01/31 05:08:33;;;;;;;1.40;1.30;;;9.30;83.20;;;;;;4860962;29;20025;-80
2024/01/31 05:10:59;;;;;;;1.40;1.30;;;9.30;83.20;;;;;;4862069;29;20415;-86
2024/01/31 05:13:25;;;;;;;1.52;1.42;;;9.30;83.20;;;;;;4857338;29;20436;-77
2024/01/31 05:15:51;;;;;;;1.38;1.23;;;9.30;83.20;;;;;;4858495;29;20037;-77
2024/01/31 05:18:17;;;;;;;1.33;1.23;;;9.30;83.20;;;;;;4859560;29;20030;-92
2024/01/31 05:20:43;;;;;;;1.60;1.50;;;9.30;83.20;;;;;;4840481;29;20033;-77
2024/01/31 05:23:09;;;;;;;1.60;1.40;;;9.30;83.20;;;;;;4869930;29;20059;-77
2024/01/31 05:25:34;;;;;;;1.20;1.20;;;9.30;83.20;;;;;;4868694;29;20045;-79
2024/01/31 05:28:00;;;;;;;1.33;1.20;;;9.30;83.20;;;;;;4843684;29;20025;-80
2024/01/31 05:30:26;;;;;;;1.42;1.27;;;9.30;83.30;;;;;;4859094;29;20121;-94
2024/01/31 05:32:52;;;;;;;2.47;1.55;;;9.20;83.20;;;;;;4842405;29;20113;-86
2024/01/31 05:35:17;;;;;;;1.30;1.20;;;9.20;83.20;;;;;;4857564;29;20030;-79
2024/01/31 05:37:43;;;;;;;1.60;1.48;;;9.20;83.30;;;;;;4838910;29;20037;-79
2024/01/31 05:40:11;;;;;;;1.35;1.25;;;9.20;83.30;;;;;;4869389;29;20045;-94
2024/01/31 05:42:37;;;;;;;1.20;1.20;;;9.20;83.30;;;;;;4869138;29;20047;-94
2024/01/31 05:45:03;;;;;;;1.70;1.50;;;9.20;83.30;;;;;;4842204;29;20017;-90
2024/01/31 05:47:29;;;;;;;1.88;1.20;;;9.20;83.30;;;;;;4842588;29;20097;-96
2024/01/31 05:49:54;;;;;;;1.70;1.25;;;9.20;83.30;;;;;;4867342;29;20124;-77
2024/01/31 05:52:20;;;;;;;1.15;1.15;;;9.20;83.30;;;;;;4838110;29;20030;-91
2024/01/31 05:54:46;;;;;;;1.50;1.40;;;9.20;83.30;;;;;;4874363;29;20119;-93
2024/01/31 05:57:12;;;;;;;1.27;1.20;;;9.20;83.30;;;;;;4876493;29;20049;-83
2024/01/31 05:59:41;;;;;;;2.17;1.67;;;9.20;83.30;;;;;;4863520;29;20025;-87
2024/01/31 06:02:07;;;;;;;1.50;1.40;;;9.20;83.90;;;;;;4871997;29;20025;-91
2024/01/31 06:04:33;;;;;;;1.40;1.30;;;9.20;83.30;;;;;;4855069;29;20505;-94
2024/01/31 06:06:59;;;;;;;1.48;1.38;;;9.20;83.30;;;;;;4872961;29;20061;-92
2024/01/31 06:09:26;;;;;;;1.38;1.25;;;9.20;83.30;;;;;;4871130;29;20057;-79
2024/01/31 06:11:52;;;;;;;1.50;1.40;;;9.10;83.20;;;;;;4871365;29;20064;-78
2024/01/31 06:14:18;;;;;;;1.55;1.38;;;9.20;83.30;;;;;;4854381;29;20068;-78
2024/01/31 06:16:44;;;;;;;1.35;1.25;;;9.10;83.30;;;;;;4872658;29;20395;-83
2024/01/31 06:19:10;;;;;;;1.55;1.30;;;9.10;83.30;;;;;;4852249;29;20074;-83
2024/01/31 06:21:36;;;;;;;1.58;1.48;;;9.10;83.90;;;;;;4872493;29;20037;-93
2024/01/31 06:24:01;;;;;;;1.50;1.40;;;9.10;83.30;;;;;;4857598;29;20041;-77
2024/01/31 06:26:28;;;;;;;1.52;1.42;;;9.10;83.30;;;;;;4868520;29;20418;-82
2024/01/31 06:28:54;;;;;;;1.40;1.30;;;9.10;83.30;;;;;;4854767;29;20068;-82
2024/01/31 06:31:27;;;;;;;1.70;1.60;;;9.10;83.30;;;;;;4839517;29;20037;-92
2024/01/31 06:33:53;;;;;;;1.60;1.40;;;9.10;83.30;;;;;;4871434;29;20029;-81
2024/01/31 06:36:20;;;;;;;1.60;1.50;;;9.10;83.30;;;;;;4842438;29;20493;-95
2024/01/31 06:38:46;;;;;;;1.55;1.45;;;9.10;83.30;;;;;;4857733;29;20069;-78
2024/01/31 06:41:18;;;;;;;1.60;1.50;;;9.10;83.30;;;;;;4863995;29;20026;-78
2024/01/31 06:43:44;;;;;;;1.40;1.30;;;9.10;83.30;;;;;;4854637;29;20037;-81
2024/01/31 06:46:10;;;;;;;1.55;1.45;;;9.10;83.30;;;;;;4843853;29;20025;-91
2024/01/31 06:48:36;;;;;;;1.42;1.33;;;9.10;83.30;;;;;;4883903;29;20018;-80
2024/01/31 06:51:02;;;;;;;1.73;1.30;;;9.10;83.30;;;;;;4858308;29;20085;-87
2024/01/31 06:53:29;;;;;;;1.60;1.50;;;9.10;83.30;;;;;;4869216;29;20494;-87
2024/01/31 06:55:55;;;;;;;2.08;1.50;;;9.10;83.40;;;;;;4844504;29;20026;-80
2024/01/31 06:58:21;;;;;;;1.75;1.50;;;9.10;83.30;;;;;;4866703;29;20049;-87
2024/01/31 07:00:47;;;;;;;1.70;1.60;;;9.10;83.40;;;;;;4867198;29;20045;-89
2024/01/31 07:03:13;;;;;;;1.60;1.50;;;9.10;83.40;;;;;;4869980;29;20144;-77
2024/01/31 07:05:39;;;;;;;1.30;1.20;;;9.00;83.30;;;;;;4868775;29;20393;-90
2024/01/31 07:08:05;;;;;;;1.52;1.42;;;9.00;83.30;;;;;;4857108;29;20397;-81
2024/01/31 07:10:30;;;;;;;1.50;1.35;;;9.00;83.30;;;;;;4857693;29;20097;-77
2024/01/31 07:12:56;;;;;;;2.28;1.70;;;9.00;83.30;;;;;;4851942;29;20037;-77
2024/01/31 07:15:22;;;;;;;1.80;1.70;;;9.00;83.30;;;;;;4856630;29;20029;-77
2024/01/31 07:17:48;;;;;;;1.60;1.50;;;9.00;83.30;;;;;;4862921;29;20034;-80
2024/01/31 07:20:14;;;;;;;1.67;1.58;;;9.10;83.40;;;;;;4869535;29;20052;-88
2024/01/31 07:22:39;;;;;;;1.83;1.55;;;9.00;83.30;;;;;;4843857;29;20126;-90
2024/01/31 07:25:10;;;;;;;1.70;1.60;;;9.00;83.30;;;;;;4841734;29;20112;-80
2024/01/31 07:27:40;;;;;;;1.60;1.40;;;9.00;83.30;;;;;;4866987;29;20041;-77
2024/01/31 07:30:08;;;;;;;1.70;1.60;;;9.00;83.30;;;;;;4857269;29;20021;-87
2024/01/31 07:32:34;;;;;;;2.20;1.60;;;9.00;83.30;;;;;;4857182;29;20153;-78
2024/01/31 07:35:00;;;;;;;2.00;1.65;;;9.00;83.30;;;;;;4858450;29;20100;-87
2024/01/31 07:37:25;;;;;;;1.60;1.50;;;9.00;83.30;;;;;;4857522;29;20049;-96
2024/01/31 07:39:56;;;;;;;1.75;1.65;;;9.00;83.30;;;;;;4878220;29;20069;-79
2024/01/31 07:42:22;;;;;;;1.70;1.60;;;9.00;83.30;;;;;;4851379;29;20085;-77
2024/01/31 07:44:49;;;;;;;1.83;1.67;;;9.00;83.30;;;;;;4841391;29;20034;-89
2024/01/31 07:47:14;;;;;;;1.88;1.63;;;9.00;83.30;;;;;;4871214;29;20109;-89
2024/01/31 07:49:43;;;;;;;1.80;1.70;;;9.00;83.30;;;;;;4853566;29;20463;-77
2024/01/31 07:52:11;;;;;;;1.77;1.60;;;9.00;83.30;;;;;;4869929;29;20053;-80
2024/01/31 07:54:36;;;;;;;1.60;1.50;;;9.00;83.30;;;;;;4861834;29;20041;-77
2024/01/31 07:57:02;;;;;;;1.50;1.40;;;9.00;83.30;;;;;;4858619;29;20081;-95
2024/01/31 07:59:28;;;;;;;1.80;1.58;;;9.00;83.30;;;;;;4881216;29;20494;-79
2024/01/31 08:01:54;;;;;;;1.70;1.60;;;9.00;83.30;;;;;;4856740;29;20033;-77
2024/01/31 08:04:20;;;;;;;2.05;1.70;;;9.00;83.30;;;;;;4858340;29;20029;-96
2024/01/31 08:06:45;;;;;;;1.98;1.60;;;9.00;83.30;;;;;;4848918;29;20317;-77
2024/01/31 08:09:11;;;;;;;1.70;1.60;;;9.00;83.30;;;;;;4863107;29;20064;-77
2024/01/31 08:11:44;;;;;;;1.85;1.65;;;9.00;83.30;;;;;;4860743;29;20132;-88
2024/01/31 08:14:11;;;;;;;2.97;1.85;;;9.00;83.30;;;;;;4836413;29;20042;-80
2024/01/31 08:16:37;;;;;;;1.80;1.70;;;9.00;83.20;;;;;;4873259;29;20101;-96
2024/01/31 08:19:04;;;;;;;1.70;1.60;;;9.00;83.30;;;;;;4861186;29;20059;-95
2024/01/31 08:21:33;;;;;;;1.73;1.60;;;9.00;83.30;;;;;;4876457;29;20050;-96
2024/01/31 08:23:59;;;;;;;1.80;1.70;;;9.00;83.30;;;;;;4855683;29;20032;-79
2024/01/31 08:26:25;;;;;;;2.60;1.90;;;9.00;83.30;;;;;;4853278;29;20057;-78
2024/01/31 08:28:51;;;;;;;1.90;1.70;;;9.00;83.30;;;;;;4839318;29;20061;-90
2024/01/31 08:31:17;;;;;;;2.00;1.80;;;9.00;83.30;;;;;;4866332;29;20470;-94
2024/01/31 08:33:43;;;;;;;2.15;1.73;;;9.00;83.30;;;;;;4843943;29;20413;-94
2024/01/31 08:36:09;;;;;;;2.00;1.80;;;9.00;83.30;;;;;;4840495;29;20470;-76
2024/01/31 08:38:37;;;;;;;2.75;1.90;;;9.00;83.30;;;;;;4865797;29;20371;-85
2024/01/31 08:41:05;;;;;;;2.17;1.90;;;9.00;83.30;;;;;;4863965;29;20034;-85
2024/01/31 08:43:30;;;;;;;1.98;1.77;;;8.90;83.30;;;;;;4861546;29;20045;-86
2024/01/31 08:45:56;;;;;;;1.83;1.73;;;8.90;83.30;;;;;;4846809;29;20048;-85
2024/01/31 08:48:22;;;;;;;3.35;1.98;;;9.00;83.30;;;;;;4878497;29;20036;-77
2024/01/31 08:50:48;;;;;;;1.65;1.55;;;9.00;83.30;;;;;;4858724;29;20032;-80
2024/01/31 08:53:13;;;;;;;1.95;1.80;;;9.00;83.30;;;;;;4860131;29;20068;-83
2024/01/31 08:55:39;;;;;;;2.15;1.95;;;9.00;83.90;;;;;;4868893;29;20022;-87
2024/01/31 08:58:05;;;;;;;2.40;2.00;;;9.00;83.30;;;;;;4858635;29;20668;-86
2024/01/31 09:00:31;;;;;;;1.95;1.85;;;9.00;83.30;;;;;;4866932;29;20074;-80
2024/01/31 09:02:57;;;;;;;2.08;1.90;;;9.00;83.30;;;;;;4872951;29;20033;-77
2024/01/31 09:05:23;;;;;;;2.20;2.00;;;9.00;83.30;;;;;;4870368;29;20026;-77
2024/01/31 09:07:49;;;;;;;2.00;1.80;;;8.90;83.30;;;;;;4858431;29;20030;-94
2024/01/31 09:10:15;;;;;;;2.67;2.30;;;9.00;83.30;;;;;;4873855;29;20034;-94
2024/01/31 09:12:40;;;;;;;1.77;1.67;;;9.00;83.30;;;;;;4861548;29;20018;-85
2024/01/31 09:15:07;;;;;;;2.80;2.10;;;9.00;83.30;;;;;;4878183;29;20506;-95
2024/01/31 09:17:32;;;;;;;1.95;1.83;;;9.00;83.30;;;;;;4856256;29;20037;-81
2024/01/31 09:19:58;;;;;;;2.13;1.90;;;9.00;83.30;;;;;;4840527;29;20034;-87
2024/01/31 09:22:24;;;;;;;2.50;2.22;;;9.00;83.30;;;;;;4844615;29;20037;-77
2024/01/31 09:24:50;;;;;;;2.40;2.05;;;9.00;83.30;;;;;;4870020;29;20025;-78
2024/01/31 09:27:19;;;;;;;2.65;2.30;;;9.00;83.30;;;;;;4854401;29;20372;-81
2024/01/31 09:29:46;;;;;;;2.42;2.22;;;9.00;83.30;;;;;;4877883;29;20025;-87
2024/01/31 09:32:14;;;;;;;2.47;2.08;;;9.00;83.30;;;;;;4862966;29;20025;-87
2024/01/31 09:34:41;;;;;;;2.67;2.10;;;9.00;83.30;;;;;;4870715;29;20120;-78
2024/01/31 09:37:07;;;;;;;2.40;2.15;;;9.00;83.30;;;;;;4862336;29;20310;-78
2024/01/31 09:39:32;;;;;;;3.00;2.35;;;9.00;83.40;;;;;;4873422;29;20026;-87
2024/01/31 09:41:58;;;;;;;3.03;2.47;;;9.00;83.40;;;;;;4856287;29;20034;-87
2024/01/31 09:44:25;;;;;;;2.65;2.13;;;9.00;83.40;;;;;;4868957;29;20034;-86
2024/01/31 09:46:53;;;;;;;2.58;2.30;;;9.00;83.40;;;;;;4842675;29;20033;-78
2024/01/31 09:49:19;;;;;;;3.45;2.80;;;9.00;83.40;;;;;;4849476;29;20040;-77
2024/01/31 09:51:45;;;;;;;2.50;2.25;;;9.00;83.40;;;;;;4857786;29;20031;-95
2024/01/31 09:54:11;;;;;;;3.03;2.45;;;9.10;83.40;;;;;;4856555;29;20482;-94
2024/01/31 09:56:37;;;;;;;3.28;2.60;;;9.10;83.40;;;;;;4859432;29;20553;-86
2024/01/31 09:59:03;;;;;;;2.83;2.30;;;9.10;83.40;;;;;;4845204;29;20030;-81
2024/01/31 10:01:29;;;;;;;3.53;2.80;;;9.10;83.40;;;;;;4873960;29;20045;-86
2024/01/31 10:03:57;;;;;;;2.97;2.42;;;9.10;83.40;;;;;;4860922;29;20029;-86
2024/01/31 10:06:29;;;;;;;3.17;2.65;;;9.10;83.30;;;;;;4862802;29;20033;-90
2024/01/31 10:08:57;;;;;;;2.92;2.45;;;9.10;83.30;;;;;;4861660;29;20070;-95
2024/01/31 10:11:25;;;;;;;3.83;2.97;;;9.10;83.30;;;;;;4854935;29;20030;-78
2024/01/31 10:13:50;;;;;;;3.40;2.70;;;9.20;83.40;;;;;;4859918;29;20098;-95
2024/01/31 10:16:18;;;;;;;3.85;2.78;;;9.20;83.40;;;;;;4861342;29;20515;-78
2024/01/31 10:18:44;;;;;;;3.45;2.70;;;9.20;83.40;;;;;;4867581;29;20048;-94
2024/01/31 10:21:10;;;;;;;3.63;2.83;;;9.20;83.40;;;;;;4874079;29;20116;-86
2024/01/31 10:23:36;;;;;;;4.72;2.80;;;9.20;83.40;;;;;;4844424;29;20558;-81
2024/01/31 10:26:02;;;;;;;3.67;3.05;;;9.20;83.40;;;;;;4858118;29;20047;-95
2024/01/31 10:28:28;;;;;;;4.45;2.80;;;9.20;83.40;;;;;;4858756;29;20037;-87
2024/01/31 10:30:55;;;;;;;4.32;3.20;;;9.20;83.40;;;;;;4869542;29;20112;-81
2024/01/31 10:33:23;;;;;;;3.90;3.20;;;9.30;83.40;;;;;;4859168;29;20081;-77
2024/01/31 10:35:51;;;;;;;4.05;3.33;;;9.30;83.30;;;;;;4857492;29;20033;-95
2024/01/31 10:38:17;;;;;;;4.53;3.47;;;9.30;83.30;;;;;;4847291;29;20280;-80
2024/01/31 10:40:45;;;;;;;4.80;3.60;;;9.30;83.20;;;;;;4845700;29;20394;-94
2024/01/31 10:43:13;;;;;;;5.75;3.53;;;9.30;83.20;;;;;;4860409;29;20045;-95
2024/01/31 10:45:39;;;;;;;5.32;3.63;;;9.40;83.20;;;;;;4859140;29;20025;-86
2024/01/31 10:48:05;;;;;;;4.95;3.58;;;9.40;83.10;;;;;;4863422;29;20085;-94
2024/01/31 10:50:31;;;;;;;4.85;3.50;;;9.40;83.10;;;;;;4841581;29;20018;-77
2024/01/31 10:52:59;;;;;;;4.25;3.53;;;9.40;83.10;;;;;;4863024;29;20065;-94
2024/01/31 10:55:27;;;;;;;5.25;3.72;;;9.40;83.70;;;;;;4853319;29;20022;-86
2024/01/31 10:57:54;;;;;;;4.95;3.72;;;9.40;83.10;;;;;;4871464;29;20077;-85
2024/01/31 11:00:30;;;;;;;6.30;4.03;;;9.40;83.00;;;;;;4857915;29;20065;-86
2024/01/31 11:02:57;;;;;;;4.85;3.53;;;9.50;83.10;;;;;;4840150;29;20048;-77
2024/01/31 11:05:25;;;;;;;6.00;3.85;;;9.50;83.00;;;;;;4839871;29;20037;-78
2024/01/31 11:07:51;;;;;;;6.38;3.92;;;9.50;83.00;;;;;;4855044;29;20083;-78
2024/01/31 11:10:21;;;;;;;5.70;3.85;;;9.50;83.00;;;;;;4880161;29;20025;-91
2024/01/31 11:13:02;;;;;;;5.68;3.80;;;9.50;83.00;;;;;;4863292;29;20053;-77
2024/01/31 11:15:33;;;;;;;6.20;4.30;;;9.50;83.00;;;;;;4852715;29;20052;-96
2024/01/31 11:18:09;;;;;;;5.90;4.20;;;9.50;82.90;;;;;;4875419;29;20089;-82
2024/01/31 11:20:49;;;;;;;6.47;4.00;;;9.60;83.00;;;;;;4858544;29;20045;-96
2024/01/31 11:23:16;;;;;;;7.18;4.70;;;9.60;83.00;;;;;;4858484;29;20034;-78
2024/01/31 11:25:43;;;;;;;5.75;3.83;;;9.60;82.90;;;;;;4855830;29;20065;-93
2024/01/31 11:28:10;;;;;;;6.47;4.30;;;9.60;83.00;;;;;;4859106;29;20026;-91
2024/01/31 11:30:36;;;;;;;6.15;4.43;;;9.60;83.00;;;;;;4859604;29;20029;-93
2024/01/31 11:33:05;;;;;;;6.07;4.28;;;9.60;82.90;;;;;;4858070;29;20558;-84
2024/01/31 11:35:33;;;;;;;6.18;4.10;;;9.60;82.90;;;;;;4859126;29;20057;-87
2024/01/31 11:37:59;;;;;;;7.00;4.82;;;9.70;82.90;;;;;;4867925;29;20065;-78
2024/01/31 11:40:25;;;;;;;7.47;4.65;;;9.70;82.90;;;;;;4855819;29;20025;-94
2024/01/31 11:42:53;;;;;;;7.10;4.38;;;9.70;82.90;;;;;;4866745;29;20481;-81
2024/01/31 11:45:25;;;;;;;7.95;4.93;;;9.70;82.90;;;;;;4855805;29;20368;-82
2024/01/31 11:47:53;;;;;;;7.22;4.80;;;9.70;82.90;;;;;;4843724;29;20116;-86
2024/01/31 11:50:19;;;;;;;6.55;5.03;;;9.70;82.90;;;;;;4856920;29;20055;-94
2024/01/31 11:52:46;;;;;;;7.43;5.35;;;9.70;82.80;;;;;;4862552;29;20034;-86
2024/01/31 11:55:12;;;;;;;6.47;4.85;;;9.80;82.90;;;;;;4876124;29;20025;-83
2024/01/31 11:57:40;;;;;;;6.88;4.85;;;9.80;82.90;;;;;;4872864;29;20066;-96
2024/01/31 12:00:07;;;;;;;7.10;5.00;;;9.80;82.90;;;;;;4853163;29;20036;-82
2024/01/31 12:02:39;;;;;;;7.13;4.95;;;9.80;82.80;;;;;;4861501;29;20026;-83
2024/01/31 12:05:06;;;;;;;8.50;5.32;;;9.80;82.80;;;;;;4838861;29;20435;-94
2024/01/31 12:07:34;;;;;;;7.95;5.15;;;9.80;82.80;;;;;;4859305;29;20154;-85
2024/01/31 12:10:00;;;;;;;7.75;5.07;;;9.80;82.80;;;;;;4843930;29;20097;-82
2024/01/31 12:12:28;;;;;;;7.95;5.13;;;9.90;82.80;;;;;;4871130;29;20121;-95
2024/01/31 12:14:55;;;;;;;7.90;5.60;;;9.90;82.80;;;;;;4869232;29;20048;-78
2024/01/31 12:17:28;;;;;;;7.90;5.07;;;9.90;82.80;;;;;;4870625;29;20042;-82
2024/01/31 12:20:08;;;;;;;8.35;5.35;;;9.90;82.90;;;;;;4878174;29;20033;-86
2024/01/31 12:22:38;;;;;;;7.35;5.32;;;9.90;82.80;;;;;;4860626;29;20439;-94
2024/01/31 12:25:04;;;;;;;8.18;5.78;;;9.90;82.80;;;;;;4860311;29;20029;-78
2024/01/31 12:27:31;;;;;;;8.00;5.20;;;9.90;82.70;;;;;;4857403;29;20037;-79
2024/01/31 12:29:57;;;;;;;9.50;5.50;;;10.00;82.80;;;;;;4856074;29;20033;-79
2024/01/31 12:32:26;;;;;;;9.27;6.15;;;9.90;82.80;;;;;;4862776;29;20379;-86
2024/01/31 12:34:52;;;;;;;8.35;5.60;;;10.00;82.80;;;;;;4858829;29;20421;-94
2024/01/31 12:37:18;;;;;;;9.43;5.85;;;10.00;82.80;;;;;;4864892;29;20030;-95
2024/01/31 12:39:44;;;;;;;8.95;5.70;;;10.00;82.80;;;;;;4873198;29;20094;-79
2024/01/31 12:42:10;;;;;;;8.20;5.95;;;10.00;83.40;;;;;;4876310;29;20037;-82
2024/01/31 12:44:36;;;;;;;9.88;6.35;;;10.00;82.70;;;;;;4862466;29;20124;-86
2024/01/31 12:47:08;;;;;;;9.15;6.15;;;10.00;82.80;;;;;;4863565;29;20037;-96
2024/01/31 12:49:43;;;;;;;9.35;5.93;;;10.00;82.70;;;;;;4865786;29;20092;-93
2024/01/31 12:52:08;;;;;;;;;;;10.00;82.70;;;;;;4876185;29;20446;-84